sensor_id;sensor_type;location;lat;lon;timestamp;P1;durP1;ratioP1;P2;durP2;ratioP2
29172;SDS011;16223;47.966;-1.616;2023-02-13T00:00:06;25.0875;;;23.2125;;
29172;SDS011;16223;47.966;-1.616;2023-02-13T00:01:05;33.1875;;;24.4875;;
29172;SDS011;16223;47.966;-1.616;2023-02-13T00:02:05;38.725;;;23.349999999999998;;
29172;SDS011;16223;47.966;-1.616;2023-02-13T00:03:05;31.35;;;28.25;;
29172;SDS011;16223;47.966;-1.616;2023-02-13T00:04:05;26.625;;;25.099999999999998;;
29172;SDS011;16223;47.966;-1.616;2023-02-13T00:05:05;37.6;;;27.6;;
29172;SDS011;16223;47.966;-1.616;2023-02-13T00:06:05;27.65;;;25.924999999999997;;
29172;SDS011;16223;47.966;-1.616;2023-02-13T00:07:05;34.0125;;;31.2125;;
29172;SDS011;16223;47.966;-1.616;2023-02-13T00:08:05;34.725;;;30.75;;
29172;SDS011;16223;47.966;-1.616;2023-02-13T00:09:05;32.0;;;29.6875;;
29172;SDS011;16223;47.966;-1.616;2023-02-13T00:10:06;34.912499999999994;;;31.187499999999996;;
29172;SDS011;16223;47.966;-1.616;2023-02-13T00:11:05;36.45;;;32.787499999999994;;
29172;SDS011;16223;47.966;-1.616;2023-02-13T00:12:06;59.612500000000004;;;36.525000000000006;;
29172;SDS011;16223;47.966;-1.616;2023-02-13T00:13:05;52.337500000000006;;;45.5375;;
29172;SDS011;16223;47.966;-1.616;2023-02-13T00:14:05;46.7625;;;43.0875;;
29172;SDS011;16223;47.966;-1.616;2023-02-13T00:15:05;38.962500000000006;;;37.3125;;
29172;SDS011;16223;47.966;-1.616;2023-02-13T00:16:05;41.05;;;38.575;;
29172;SDS011;16223;47.966;-1.616;2023-02-13T00:17:05;42.4875;;;40.0125;;
29172;SDS011;16223;47.966;-1.616;2023-02-13T00:18:05;43.375;;;40.375;;
29172;SDS011;16223;47.966;-1.616;2023-02-13T00:19:05;43.412499999999994;;;40.837500000000006;;
29172;SDS011;16223;47.966;-1.616;2023-02-13T00:20:05;39.85;;;37.9375;;
29172;SDS011;16223;47.966;-1.616;2023-02-13T00:21:06;50.9875;;;42.8;;
29172;SDS011;16223;47.966;-1.616;2023-02-13T00:22:05;54.3125;;;43.8375;;
29172;SDS011;16223;47.966;-1.616;2023-02-13T00:23:05;46.3875;;;35.5625;;
29172;SDS011;16223;47.966;-1.616;2023-02-13T00:24:05;45.9;;;38.925;;
29172;SDS011;16223;47.966;-1.616;2023-02-13T00:25:06;34.8875;;;32.1125;;
29172;SDS011;16223;47.966;-1.616;2023-02-13T00:26:06;33.725;;;32.2875;;
29172;SDS011;16223;47.966;-1.616;2023-02-13T00:27:05;33.650000000000006;;;31.174999999999997;;
29172;SDS011;16223;47.966;-1.616;2023-02-13T00:28:05;40.675000000000004;;;36.7375;;
29172;SDS011;16223;47.966;-1.616;2023-02-13T00:29:05;38.55;;;34.25;;
29172;SDS011;16223;47.966;-1.616;2023-02-13T00:30:06;40.1625;;;34.7125;;
29172;SDS011;16223;47.966;-1.616;2023-02-13T00:31:06;29.787499999999998;;;28.2125;;
29172;SDS011;16223;47.966;-1.616;2023-02-13T00:32:05;57.662499999999994;;;33.724999999999994;;
29172;SDS011;16223;47.966;-1.616;2023-02-13T00:33:05;38.3;;;35.175;;
29172;SDS011;16223;47.966;-1.616;2023-02-13T00:34:05;39.224999999999994;;;36.5125;;
29172;SDS011;16223;47.966;-1.616;2023-02-13T00:35:05;39.3125;;;33.575;;
29172;SDS011;16223;47.966;-1.616;2023-02-13T00:36:06;34.2875;;;31.1625;;
29172;SDS011;16223;47.966;-1.616;2023-02-13T00:37:06;35.1;;;28.1375;;
29172;SDS011;16223;47.966;-1.616;2023-02-13T00:38:06;34.7;;;31.237499999999997;;
29172;SDS011;16223;47.966;-1.616;2023-02-13T00:39:05;37.35;;;33.0;;
29172;SDS011;16223;47.966;-1.616;2023-02-13T00:40:05;50.95;;;32.7;;
29172;SDS011;16223;47.966;-1.616;2023-02-13T00:41:05;35.2125;;;30.549999999999997;;
29172;SDS011;16223;47.966;-1.616;2023-02-13T00:42:05;39.837500000000006;;;26.5125;;
29172;SDS011;16223;47.966;-1.616;2023-02-13T00:43:05;27.0375;;;25.5;;
29172;SDS011;16223;47.966;-1.616;2023-02-13T00:44:05;31.325000000000003;;;28.975;;
29172;SDS011;16223;47.966;-1.616;2023-02-13T00:45:05;31.575;;;29.325000000000003;;
29172;SDS011;16223;47.966;-1.616;2023-02-13T00:46:05;32.037499999999994;;;28.700000000000003;;
29172;SDS011;16223;47.966;-1.616;2023-02-13T00:47:05;30.95;;;27.862499999999997;;
29172;SDS011;16223;47.966;-1.616;2023-02-13T00:48:05;26.9125;;;24.924999999999997;;
29172;SDS011;16223;47.966;-1.616;2023-02-13T00:49:05;33.41250000000001;;;29.0625;;
29172;SDS011;16223;47.966;-1.616;2023-02-13T00:50:05;62.6;;;35.262499999999996;;
29172;SDS011;16223;47.966;-1.616;2023-02-13T00:51:05;39.0625;;;32.875;;
29172;SDS011;16223;47.966;-1.616;2023-02-13T00:52:05;46.2;;;33.1125;;
29172;SDS011;16223;47.966;-1.616;2023-02-13T00:53:05;29.150000000000002;;;27.325;;
29172;SDS011;16223;47.966;-1.616;2023-02-13T00:54:05;29.2375;;;26.8375;;
29172;SDS011;16223;47.966;-1.616;2023-02-13T00:55:05;43.075;;;29.7625;;
29172;SDS011;16223;47.966;-1.616;2023-02-13T00:56:05;35.650000000000006;;;31.525;;
29172;SDS011;16223;47.966;-1.616;2023-02-13T00:57:05;36.5;;;29.575;;
29172;SDS011;16223;47.966;-1.616;2023-02-13T00:58:05;29.887499999999996;;;28.125;;
29172;SDS011;16223;47.966;-1.616;2023-02-13T00:59:05;44.2875;;;31.7625;;
29172;SDS011;16223;47.966;-1.616;2023-02-13T01:00:05;36.925;;;32.6875;;
29172;SDS011;16223;47.966;-1.616;2023-02-13T01:01:05;29.35;;;27.2125;;
29172;SDS011;16223;47.966;-1.616;2023-02-13T01:02:08;61.6125;;;34.2625;;
29172;SDS011;16223;47.966;-1.616;2023-02-13T01:03:05;28.5;;;26.6125;;
29172;SDS011;16223;47.966;-1.616;2023-02-13T01:04:05;27.1875;;;25.275;;
29172;SDS011;16223;47.966;-1.616;2023-02-13T01:05:05;40.0375;;;32.5;;
29172;SDS011;16223;47.966;-1.616;2023-02-13T01:06:05;30.8;;;25.775000000000002;;
29172;SDS011;16223;47.966;-1.616;2023-02-13T01:07:05;28.412499999999998;;;26.7375;;
29172;SDS011;16223;47.966;-1.616;2023-02-13T01:08:05;33.5;;;30.775;;
29172;SDS011;16223;47.966;-1.616;2023-02-13T01:09:05;31.1875;;;28.0375;;
29172;SDS011;16223;47.966;-1.616;2023-02-13T01:10:05;32.7;;;30.1875;;
29172;SDS011;16223;47.966;-1.616;2023-02-13T01:11:05;38.1375;;;27.362499999999997;;
29172;SDS011;16223;47.966;-1.616;2023-02-13T01:12:05;31.425;;;27.375;;
29172;SDS011;16223;47.966;-1.616;2023-02-13T01:13:06;29.450000000000003;;;27.1375;;
29172;SDS011;16223;47.966;-1.616;2023-02-13T01:14:05;26.112499999999997;;;24.1875;;
29172;SDS011;16223;47.966;-1.616;2023-02-13T01:15:05;29.1625;;;26.0625;;
29172;SDS011;16223;47.966;-1.616;2023-02-13T01:16:05;26.2875;;;24.4;;
29172;SDS011;16223;47.966;-1.616;2023-02-13T01:17:05;28.1875;;;25.95;;
29172;SDS011;16223;47.966;-1.616;2023-02-13T01:18:05;26.475;;;24.1875;;
29172;SDS011;16223;47.966;-1.616;2023-02-13T01:19:05;30.2375;;;27.1875;;
29172;SDS011;16223;47.966;-1.616;2023-02-13T01:20:05;37.1375;;;26.0;;
29172;SDS011;16223;47.966;-1.616;2023-02-13T01:21:06;27.237499999999997;;;25.475;;
29172;SDS011;16223;47.966;-1.616;2023-02-13T01:22:06;29.424999999999997;;;26.9;;
29172;SDS011;16223;47.966;-1.616;2023-02-13T01:23:05;37.425;;;29.2;;
29172;SDS011;16223;47.966;-1.616;2023-02-13T01:24:05;27.275;;;25.300000000000004;;
29172;SDS011;16223;47.966;-1.616;2023-02-13T01:25:05;26.2375;;;23.987499999999997;;
29172;SDS011;16223;47.966;-1.616;2023-02-13T01:26:07;33.575;;;30.95;;
29172;SDS011;16223;47.966;-1.616;2023-02-13T01:27:05;28.549999999999997;;;26.737499999999997;;
29172;SDS011;16223;47.966;-1.616;2023-02-13T01:28:05;34.425;;;31.225;;
29172;SDS011;16223;47.966;-1.616;2023-02-13T01:29:05;32.025;;;29.2125;;
29172;SDS011;16223;47.966;-1.616;2023-02-13T01:30:06;29.9625;;;27.4375;;
29172;SDS011;16223;47.966;-1.616;2023-02-13T01:31:05;51.1375;;;33.2;;
29172;SDS011;16223;47.966;-1.616;2023-02-13T01:32:05;37.0;;;31.4875;;
29172;SDS011;16223;47.966;-1.616;2023-02-13T01:33:05;31.4375;;;29.15;;
29172;SDS011;16223;47.966;-1.616;2023-02-13T01:34:05;48.7625;;;31.35;;
29172;SDS011;16223;47.966;-1.616;2023-02-13T01:35:06;33.475;;;30.9625;;
29172;SDS011;16223;47.966;-1.616;2023-02-13T01:36:06;35.387499999999996;;;32.7875;;
29172;SDS011;16223;47.966;-1.616;2023-02-13T01:37:05;32.8875;;;30.475;;
29172;SDS011;16223;47.966;-1.616;2023-02-13T01:38:05;33.15;;;29.7;;
29172;SDS011;16223;47.966;-1.616;2023-02-13T01:39:05;32.599999999999994;;;30.487499999999997;;
29172;SDS011;16223;47.966;-1.616;2023-02-13T01:40:06;30.975;;;27.3875;;
29172;SDS011;16223;47.966;-1.616;2023-02-13T01:41:06;30.887500000000003;;;28.262500000000003;;
29172;SDS011;16223;47.966;-1.616;2023-02-13T01:42:05;48.95;;;37.037499999999994;;
29172;SDS011;16223;47.966;-1.616;2023-02-13T01:43:07;31.312499999999996;;;29.3875;;
29172;SDS011;16223;47.966;-1.616;2023-02-13T01:44:43;36.0;;;31.6;;
29172;SDS011;16223;47.966;-1.616;2023-02-13T01:45:12;28.799999999999997;;;26.9375;;
29172;SDS011;16223;47.966;-1.616;2023-02-13T01:46:05;31.4625;;;28.425;;
29172;SDS011;16223;47.966;-1.616;2023-02-13T01:47:06;41.099999999999994;;;30.975;;
29172;SDS011;16223;47.966;-1.616;2023-02-13T01:48:06;33.575;;;31.4625;;
29172;SDS011;16223;47.966;-1.616;2023-02-13T01:49:08;90.61666666666667;;;34.31666666666667;;
29172;SDS011;16223;47.966;-1.616;2023-02-13T01:50:06;33.8375;;;29.987499999999997;;
29172;SDS011;16223;47.966;-1.616;2023-02-13T01:51:06;35.775000000000006;;;30.8125;;
29172;SDS011;16223;47.966;-1.616;2023-02-13T01:52:05;34.587500000000006;;;31.7125;;
29172;SDS011;16223;47.966;-1.616;2023-02-13T01:53:07;37.9;;;35.325;;
29172;SDS011;16223;47.966;-1.616;2023-02-13T01:54:06;34.7625;;;32.225;;
29172;SDS011;16223;47.966;-1.616;2023-02-13T01:55:05;35.900000000000006;;;33.849999999999994;;
29172;SDS011;16223;47.966;-1.616;2023-02-13T01:56:07;40.2375;;;35.074999999999996;;
29172;SDS011;16223;47.966;-1.616;2023-02-13T01:57:06;42.0125;;;39.475;;
29172;SDS011;16223;47.966;-1.616;2023-02-13T01:58:05;41.075;;;38.4875;;
29172;SDS011;16223;47.966;-1.616;2023-02-13T01:59:06;48.1875;;;43.475;;
29172;SDS011;16223;47.966;-1.616;2023-02-13T02:00:06;61.33749999999999;;;36.9625;;
29172;SDS011;16223;47.966;-1.616;2023-02-13T02:01:05;76.3375;;;45.1;;
29172;SDS011;16223;47.966;-1.616;2023-02-13T02:02:05;47.8;;;41.6875;;
29172;SDS011;16223;47.966;-1.616;2023-02-13T02:03:06;43.35;;;40.2;;
29172;SDS011;16223;47.966;-1.616;2023-02-13T02:04:06;43.7625;;;40.9625;;
29172;SDS011;16223;47.966;-1.616;2023-02-13T02:05:05;52.5875;;;45.7875;;
29172;SDS011;16223;47.966;-1.616;2023-02-13T02:06:06;44.7125;;;42.1125;;
29172;SDS011;16223;47.966;-1.616;2023-02-13T02:07:06;43.8625;;;41.7625;;
29172;SDS011;16223;47.966;-1.616;2023-02-13T02:08:06;45.475;;;42.95;;
29172;SDS011;16223;47.966;-1.616;2023-02-13T02:09:07;53.775000000000006;;;43.5125;;
29172;SDS011;16223;47.966;-1.616;2023-02-13T02:10:07;49.3;;;45.224999999999994;;
29172;SDS011;16223;47.966;-1.616;2023-02-13T02:11:06;42.7875;;;40.7625;;
29172;SDS011;16223;47.966;-1.616;2023-02-13T02:12:06;62.0625;;;52.1875;;
29172;SDS011;16223;47.966;-1.616;2023-02-13T02:13:05;44.287499999999994;;;42.087500000000006;;
29172;SDS011;16223;47.966;-1.616;2023-02-13T02:14:05;41.225;;;39.212500000000006;;
29172;SDS011;16223;47.966;-1.616;2023-02-13T02:15:05;54.125;;;49.9375;;
29172;SDS011;16223;47.966;-1.616;2023-02-13T02:16:05;46.5875;;;43.6125;;
29172;SDS011;16223;47.966;-1.616;2023-02-13T02:17:05;53.5625;;;42.675;;
29172;SDS011;16223;47.966;-1.616;2023-02-13T02:18:05;44.5625;;;41.987500000000004;;
29172;SDS011;16223;47.966;-1.616;2023-02-13T02:18:41;51.4625;;;45.3875;;
29172;SDS011;16223;47.966;-1.616;2023-02-13T02:19:42;46.725;;;43.375;;
29172;SDS011;16223;47.966;-1.616;2023-02-13T02:20:45;41.21249999999999;;;39.075;;
29172;SDS011;16223;47.966;-1.616;2023-02-13T02:21:45;68.575;;;44.237500000000004;;
29172;SDS011;16223;47.966;-1.616;2023-02-13T02:22:45;47.9875;;;43.05;;
29172;SDS011;16223;47.966;-1.616;2023-02-13T02:23:46;51.8625;;;47.8375;;
29172;SDS011;16223;47.966;-1.616;2023-02-13T02:24:46;55.5625;;;51.25;;
29172;SDS011;16223;47.966;-1.616;2023-02-13T02:25:50;49.8;;;46.125;;
29172;SDS011;16223;47.966;-1.616;2023-02-13T02:26:59;48.0625;;;45.137499999999996;;
29172;SDS011;16223;47.966;-1.616;2023-02-13T02:28:17;50.9375;;;45.6125;;
29172;SDS011;16223;47.966;-1.616;2023-02-13T02:28:48;56.325;;;48.2375;;
29172;SDS011;16223;47.966;-1.616;2023-02-13T02:30:02;45.2375;;;42.5875;;
29172;SDS011;16223;47.966;-1.616;2023-02-13T02:30:54;50.9;;;44.025;;
29172;SDS011;16223;47.966;-1.616;2023-02-13T02:31:45;47.025000000000006;;;44.199999999999996;;
29172;SDS011;16223;47.966;-1.616;2023-02-13T02:32:47;46.6375;;;44.7375;;
29172;SDS011;16223;47.966;-1.616;2023-02-13T02:33:43;50.8625;;;48.1875;;
29172;SDS011;16223;47.966;-1.616;2023-02-13T02:34:43;74.4625;;;50.725;;
29172;SDS011;16223;47.966;-1.616;2023-02-13T02:35:44;57.4875;;;52.912499999999994;;
29172;SDS011;16223;47.966;-1.616;2023-02-13T02:36:45;50.25;;;47.025000000000006;;
29172;SDS011;16223;47.966;-1.616;2023-02-13T02:37:43;57.9875;;;54.400000000000006;;
29172;SDS011;16223;47.966;-1.616;2023-02-13T02:38:45;52.1625;;;49.3875;;
29172;SDS011;16223;47.966;-1.616;2023-02-13T02:39:43;55.7;;;50.9375;;
29172;SDS011;16223;47.966;-1.616;2023-02-13T02:40:44;52.4375;;;49.75;;
29172;SDS011;16223;47.966;-1.616;2023-02-13T02:41:45;58.150000000000006;;;54.275;;
29172;SDS011;16223;47.966;-1.616;2023-02-13T02:42:42;55.412499999999994;;;52.0375;;
29172;SDS011;16223;47.966;-1.616;2023-02-13T02:43:46;57.112500000000004;;;53.375;;
29172;SDS011;16223;47.966;-1.616;2023-02-13T02:44:42;61.449999999999996;;;58.1125;;
29172;SDS011;16223;47.966;-1.616;2023-02-13T02:45:42;53.075;;;50.15;;
29172;SDS011;16223;47.966;-1.616;2023-02-13T02:46:43;51.8625;;;49.3;;
29172;SDS011;16223;47.966;-1.616;2023-02-13T02:47:43;55.3125;;;50.8125;;
29172;SDS011;16223;47.966;-1.616;2023-02-13T02:48:42;57.675;;;54.525000000000006;;
29172;SDS011;16223;47.966;-1.616;2023-02-13T02:49:41;50.5125;;;47.5;;
29172;SDS011;16223;47.966;-1.616;2023-02-13T02:50:41;56.8375;;;53.237500000000004;;
29172;SDS011;16223;47.966;-1.616;2023-02-13T02:51:44;61.587500000000006;;;57.425;;
29172;SDS011;16223;47.966;-1.616;2023-02-13T02:52:44;65.9625;;;62.1125;;
29172;SDS011;16223;47.966;-1.616;2023-02-13T02:53:43;67.125;;;61.91250000000001;;
29172;SDS011;16223;47.966;-1.616;2023-02-13T02:54:41;74.95;;;67.825;;
29172;SDS011;16223;47.966;-1.616;2023-02-13T02:55:42;71.2875;;;67.325;;
29172;SDS011;16223;47.966;-1.616;2023-02-13T02:56:41;67.4125;;;63.2;;
29172;SDS011;16223;47.966;-1.616;2023-02-13T02:57:41;70.69999999999999;;;61.9;;
29172;SDS011;16223;47.966;-1.616;2023-02-13T02:58:42;64.775;;;60.712500000000006;;
29172;SDS011;16223;47.966;-1.616;2023-02-13T02:59:41;72.21249999999999;;;66.775;;
29172;SDS011;16223;47.966;-1.616;2023-02-13T03:00:41;66.8375;;;62.099999999999994;;
29172;SDS011;16223;47.966;-1.616;2023-02-13T03:01:41;67.3625;;;63.400000000000006;;
29172;SDS011;16223;47.966;-1.616;2023-02-13T03:02:41;67.8375;;;62.6125;;
29172;SDS011;16223;47.966;-1.616;2023-02-13T03:03:41;66.8125;;;62.974999999999994;;
29172;SDS011;16223;47.966;-1.616;2023-02-13T03:04:43;75.27499999999999;;;68.5875;;
29172;SDS011;16223;47.966;-1.616;2023-02-13T03:05:41;70.475;;;64.7;;
29172;SDS011;16223;47.966;-1.616;2023-02-13T03:06:43;65.65;;;62.5625;;
29172;SDS011;16223;47.966;-1.616;2023-02-13T03:07:41;69.14999999999999;;;65.6125;;
29172;SDS011;16223;47.966;-1.616;2023-02-13T03:08:42;79.61250000000001;;;73.2625;;
29172;SDS011;16223;47.966;-1.616;2023-02-13T03:09:41;69.5875;;;65.625;;
29172;SDS011;16223;47.966;-1.616;2023-02-13T03:10:40;72.2125;;;66.66250000000001;;
29172;SDS011;16223;47.966;-1.616;2023-02-13T03:11:41;73.025;;;69.1625;;
29172;SDS011;16223;47.966;-1.616;2023-02-13T03:12:43;77.76249999999999;;;71.9625;;
29172;SDS011;16223;47.966;-1.616;2023-02-13T03:13:42;83.35;;;77.1375;;
29172;SDS011;16223;47.966;-1.616;2023-02-13T03:14:41;74.325;;;69.1;;
29172;SDS011;16223;47.966;-1.616;2023-02-13T03:15:42;75.46249999999999;;;69.7875;;
29172;SDS011;16223;47.966;-1.616;2023-02-13T03:16:41;73.3625;;;69.4875;;
29172;SDS011;16223;47.966;-1.616;2023-02-13T03:17:51;76.875;;;67.9625;;
29172;SDS011;16223;47.966;-1.616;2023-02-13T03:18:42;76.7375;;;71.30000000000001;;
29172;SDS011;16223;47.966;-1.616;2023-02-13T03:19:43;79.725;;;73.3375;;
29172;SDS011;16223;47.966;-1.616;2023-02-13T03:20:42;74.225;;;68.1625;;
29172;SDS011;16223;47.966;-1.616;2023-02-13T03:21:43;67.1875;;;63.800000000000004;;
29172;SDS011;16223;47.966;-1.616;2023-02-13T03:22:44;68.225;;;64.0625;;
29172;SDS011;16223;47.966;-1.616;2023-02-13T03:23:43;71.3625;;;67.75;;
29172;SDS011;16223;47.966;-1.616;2023-02-13T03:24:44;69.2875;;;65.7375;;
29172;SDS011;16223;47.966;-1.616;2023-02-13T03:25:46;76.2125;;;68.55000000000001;;
29172;SDS011;16223;47.966;-1.616;2023-02-13T03:26:41;70.9;;;66.86250000000001;;
29172;SDS011;16223;47.966;-1.616;2023-02-13T03:27:44;70.8;;;67.4;;
29172;SDS011;16223;47.966;-1.616;2023-02-13T03:28:43;67.2;;;59.2375;;
29172;SDS011;16223;47.966;-1.616;2023-02-13T03:29:43;68.67500000000001;;;62.362500000000004;;
29172;SDS011;16223;47.966;-1.616;2023-02-13T03:30:44;82.475;;;75.675;;
29172;SDS011;16223;47.966;-1.616;2023-02-13T03:31:42;69.26249999999999;;;65.9125;;
29172;SDS011;16223;47.966;-1.616;2023-02-13T03:32:54;67.92500000000001;;;62.6375;;
29172;SDS011;16223;47.966;-1.616;2023-02-13T03:33:45;69.5375;;;64.5;;
29172;SDS011;16223;47.966;-1.616;2023-02-13T03:34:43;71.1;;;66.28750000000001;;
29172;SDS011;16223;47.966;-1.616;2023-02-13T03:35:42;59.625;;;57.0375;;
29172;SDS011;16223;47.966;-1.616;2023-02-13T03:36:43;67.57499999999999;;;64.38749999999999;;
29172;SDS011;16223;47.966;-1.616;2023-02-13T03:37:42;64.0;;;60.375;;
29172;SDS011;16223;47.966;-1.616;2023-02-13T03:38:42;64.2;;;61.3125;;
29172;SDS011;16223;47.966;-1.616;2023-02-13T03:39:43;65.8125;;;61.8875;;
29172;SDS011;16223;47.966;-1.616;2023-02-13T03:40:42;69.3;;;64.1;;
29172;SDS011;16223;47.966;-1.616;2023-02-13T03:41:41;68.2625;;;62.949999999999996;;
29172;SDS011;16223;47.966;-1.616;2023-02-13T03:42:41;66.85;;;63.725;;
29172;SDS011;16223;47.966;-1.616;2023-02-13T03:43:42;70.2625;;;66.13749999999999;;
29172;SDS011;16223;47.966;-1.616;2023-02-13T03:44:42;63.662499999999994;;;60.45;;
29172;SDS011;16223;47.966;-1.616;2023-02-13T03:45:42;80.8125;;;70.53750000000001;;
29172;SDS011;16223;47.966;-1.616;2023-02-13T03:46:42;69.63749999999999;;;66.1375;;
29172;SDS011;16223;47.966;-1.616;2023-02-13T03:47:41;73.7;;;68.8125;;
29172;SDS011;16223;47.966;-1.616;2023-02-13T03:48:41;72.225;;;69.0875;;
29172;SDS011;16223;47.966;-1.616;2023-02-13T03:49:42;74.95;;;70.0875;;
29172;SDS011;16223;47.966;-1.616;2023-02-13T03:50:41;80.3375;;;73.7625;;
29172;SDS011;16223;47.966;-1.616;2023-02-13T03:51:42;79.7875;;;74.6125;;
29172;SDS011;16223;47.966;-1.616;2023-02-13T03:52:43;78.0;;;73.30000000000001;;
29172;SDS011;16223;47.966;-1.616;2023-02-13T03:53:41;76.25;;;71.5625;;
29172;SDS011;16223;47.966;-1.616;2023-02-13T03:55:08;76.75;;;71.5625;;
29172;SDS011;16223;47.966;-1.616;2023-02-13T03:56:07;80.375;;;76.125;;
29172;SDS011;16223;47.966;-1.616;2023-02-13T03:57:07;83.42500000000001;;;79.0875;;
29172;SDS011;16223;47.966;-1.616;2023-02-13T03:58:08;78.6;;;75.05;;
29172;SDS011;16223;47.966;-1.616;2023-02-13T03:59:08;81.78750000000001;;;75.4375;;
29172;SDS011;16223;47.966;-1.616;2023-02-13T04:00:09;88.9125;;;83.3625;;
29172;SDS011;16223;47.966;-1.616;2023-02-13T04:01:08;88.67499999999998;;;83.07499999999999;;
29172;SDS011;16223;47.966;-1.616;2023-02-13T04:02:11;76.975;;;73.1375;;
29172;SDS011;16223;47.966;-1.616;2023-02-13T04:03:09;84.625;;;79.23749999999998;;
29172;SDS011;16223;47.966;-1.616;2023-02-13T04:04:08;81.1;;;75.4125;;
29172;SDS011;16223;47.966;-1.616;2023-02-13T04:05:08;88.1;;;82.1625;;
29172;SDS011;16223;47.966;-1.616;2023-02-13T04:06:08;86.76249999999999;;;80.5875;;
29172;SDS011;16223;47.966;-1.616;2023-02-13T04:07:08;78.83749999999999;;;75.2625;;
29172;SDS011;16223;47.966;-1.616;2023-02-13T04:08:07;87.0;;;81.5;;
29172;SDS011;16223;47.966;-1.616;2023-02-13T04:09:07;88.3625;;;83.15;;
29172;SDS011;16223;47.966;-1.616;2023-02-13T04:10:08;76.73750000000001;;;73.3125;;
29172;SDS011;16223;47.966;-1.616;2023-02-13T04:11:08;81.36250000000001;;;75.6875;;
29172;SDS011;16223;47.966;-1.616;2023-02-13T04:12:08;87.61250000000001;;;77.94999999999999;;
29172;SDS011;16223;47.966;-1.616;2023-02-13T04:13:09;91.8625;;;84.175;;
29172;SDS011;16223;47.966;-1.616;2023-02-13T04:14:08;76.2875;;;71.9375;;
29172;SDS011;16223;47.966;-1.616;2023-02-13T04:15:09;79.80000000000001;;;74.3875;;
29172;SDS011;16223;47.966;-1.616;2023-02-13T04:16:08;75.725;;;71.9875;;
29172;SDS011;16223;47.966;-1.616;2023-02-13T04:17:08;76.9625;;;72.375;;
29172;SDS011;16223;47.966;-1.616;2023-02-13T04:18:08;87.575;;;81.5375;;
29172;SDS011;16223;47.966;-1.616;2023-02-13T04:19:08;85.1875;;;80.4;;
29172;SDS011;16223;47.966;-1.616;2023-02-13T04:20:08;81.05000000000001;;;76.025;;
29172;SDS011;16223;47.966;-1.616;2023-02-13T04:21:07;100.0;;;84.36250000000001;;
29172;SDS011;16223;47.966;-1.616;2023-02-13T04:22:10;90.3375;;;80.2875;;
29172;SDS011;16223;47.966;-1.616;2023-02-13T04:23:08;79.48750000000001;;;73.45;;
29172;SDS011;16223;47.966;-1.616;2023-02-13T04:24:07;82.55;;;78.0125;;
29172;SDS011;16223;47.966;-1.616;2023-02-13T04:25:08;79.35;;;75.51249999999999;;
29172;SDS011;16223;47.966;-1.616;2023-02-13T04:26:08;77.9625;;;74.4875;;
29172;SDS011;16223;47.966;-1.616;2023-02-13T04:27:08;82.8;;;76.8125;;
29172;SDS011;16223;47.966;-1.616;2023-02-13T04:28:07;83.36250000000001;;;75.8875;;
29172;SDS011;16223;47.966;-1.616;2023-02-13T04:29:08;82.1;;;76.65;;
29172;SDS011;16223;47.966;-1.616;2023-02-13T04:30:08;87.1375;;;82.0875;;
29172;SDS011;16223;47.966;-1.616;2023-02-13T04:31:07;84.42500000000001;;;78.0;;
29172;SDS011;16223;47.966;-1.616;2023-02-13T04:32:08;81.1875;;;77.125;;
29172;SDS011;16223;47.966;-1.616;2023-02-13T04:33:07;78.75;;;75.375;;
29172;SDS011;16223;47.966;-1.616;2023-02-13T04:34:07;87.5625;;;81.2875;;
29172;SDS011;16223;47.966;-1.616;2023-02-13T04:35:07;90.05;;;82.85000000000001;;
29172;SDS011;16223;47.966;-1.616;2023-02-13T04:36:07;86.4;;;81.46249999999999;;
29172;SDS011;16223;47.966;-1.616;2023-02-13T04:37:07;86.0;;;81.36250000000001;;
29172;SDS011;16223;47.966;-1.616;2023-02-13T04:38:07;87.1375;;;82.225;;
29172;SDS011;16223;47.966;-1.616;2023-02-13T04:39:07;86.0375;;;80.2375;;
29172;SDS011;16223;47.966;-1.616;2023-02-13T04:40:08;90.0125;;;84.3375;;
29172;SDS011;16223;47.966;-1.616;2023-02-13T04:41:07;87.7125;;;80.8;;
29172;SDS011;16223;47.966;-1.616;2023-02-13T04:42:07;82.5875;;;77.85;;
29172;SDS011;16223;47.966;-1.616;2023-02-13T04:43:07;90.25;;;85.7625;;
29172;SDS011;16223;47.966;-1.616;2023-02-13T04:44:07;80.61249999999998;;;77.1625;;
29172;SDS011;16223;47.966;-1.616;2023-02-13T04:45:08;83.2375;;;77.26249999999999;;
29172;SDS011;16223;47.966;-1.616;2023-02-13T04:46:07;87.4;;;82.025;;
29172;SDS011;16223;47.966;-1.616;2023-02-13T04:47:17;82.75;;;76.1875;;
29172;SDS011;16223;47.966;-1.616;2023-02-13T04:48:07;87.975;;;82.525;;
29172;SDS011;16223;47.966;-1.616;2023-02-13T04:49:08;86.05;;;81.3875;;
29172;SDS011;16223;47.966;-1.616;2023-02-13T04:50:08;82.1875;;;77.5875;;
29172;SDS011;16223;47.966;-1.616;2023-02-13T04:51:07;84.1625;;;80.225;;
29172;SDS011;16223;47.966;-1.616;2023-02-13T04:52:07;83.82499999999999;;;79.125;;
29172;SDS011;16223;47.966;-1.616;2023-02-13T04:53:07;79.2375;;;75.25;;
29172;SDS011;16223;47.966;-1.616;2023-02-13T04:54:08;90.8125;;;80.4375;;
29172;SDS011;16223;47.966;-1.616;2023-02-13T04:55:07;83.5375;;;78.0;;
29172;SDS011;16223;47.966;-1.616;2023-02-13T04:56:07;83.2875;;;79.125;;
29172;SDS011;16223;47.966;-1.616;2023-02-13T04:57:07;102.07142857142857;;;94.60000000000001;;
29172;SDS011;16223;47.966;-1.616;2023-02-13T04:58:07;85.9625;;;79.125;;
29172;SDS011;16223;47.966;-1.616;2023-02-13T04:59:07;83.325;;;78.5875;;
29172;SDS011;16223;47.966;-1.616;2023-02-13T05:00:08;75.7875;;;72.525;;
29172;SDS011;16223;47.966;-1.616;2023-02-13T05:01:11;76.525;;;73.225;;
29172;SDS011;16223;47.966;-1.616;2023-02-13T05:02:07;80.8875;;;77.225;;
29172;SDS011;16223;47.966;-1.616;2023-02-13T05:03:10;81.2125;;;75.975;;
29172;SDS011;16223;47.966;-1.616;2023-02-13T05:04:07;81.25;;;76.82499999999999;;
29172;SDS011;16223;47.966;-1.616;2023-02-13T05:05:07;83.475;;;77.6375;;
29172;SDS011;16223;47.966;-1.616;2023-02-13T05:06:07;80.6375;;;76.275;;
29172;SDS011;16223;47.966;-1.616;2023-02-13T05:07:07;84.01250000000002;;;79.7;;
29172;SDS011;16223;47.966;-1.616;2023-02-13T05:08:08;86.8875;;;82.6625;;
29172;SDS011;16223;47.966;-1.616;2023-02-13T05:09:08;83.0;;;77.6375;;
29172;SDS011;16223;47.966;-1.616;2023-02-13T05:10:08;80.05;;;75.92500000000001;;
29172;SDS011;16223;47.966;-1.616;2023-02-13T05:11:07;87.8375;;;81.2875;;